AirNav   Get $300 off a Bose A20 Aviation Headset
 
 663 users online  

10ND Smith Strip Airport
Halliday, North Dakota, USA

GOING TO HALLIDAY?


FAA INFORMATION EFFECTIVE 12 SEPTEMBER 2019

Location

FAA Identifier: 10ND
Lat/Long: 47-11-15.0360N 102-21-41.6450W
47-11.250600N 102-21.694083W
47.1875100,-102.3615681
(estimated)
Elevation: 2200 ft. / 671 m (estimated)
Variation: 11E (1985)
From city: 11 miles S of HALLIDAY, ND
Time zone: UTC -6 (UTC -7 during Standard Time)
Zip code: 58652

Airport Operations

Airport use: Private use. Permission required prior to landing
Activation date: 11/1980
Control tower: no
ARTCC: MINNEAPOLIS CENTER
FSS: GRAND FORKS FLIGHT SERVICE STATION
Attendance: UNATNDD
Wind indicator: no
Segmented circle: no

Nearby radio navigation aids

VOR radial/distance  VOR name  Freq  Var
DIKr027/25.9DICKINSON VORTAC112.9014E

Airport Services

Runway Information

Runway 18/36

Dimensions: 1800 x 50 ft. / 549 x 15 m
Surface: turf
RUNWAY 18  RUNWAY 36
Traffic pattern: leftleft
Obstructions: 30 ft. pline, 75 ft. from runwaynone

Runway 9/27

Dimensions: 1300 x 50 ft. / 396 x 15 m
Surface: turf
RUNWAY 9  RUNWAY 27
Traffic pattern: leftleft

Airport Ownership and Management from official FAA records

Ownership: Privately-owned
Owner: WARREN SMITH
8867 16TH STREET SW
HALLIDAY, ND 58636
Phone 701-938-4207
Manager: WARREN SMITH
HALLIDAY, ND 58636
Phone 701-938-4207

Airport Operational Statistics

Aircraft based on the field: 1
Single engine airplanes: 1
    

Additional Remarks

FOR CD CTC MINNEAPOLIS ARTCC AT 651-463-5588.

Instrument Procedures

There are no published instrument procedures at 10ND.

Some nearby airports with instrument procedures:

KDIK - Dickinson - Theodore Roosevelt Regional Airport (30 nm SW)
D57 - Glen Ullin Regional Airport (30 nm SE)
KHZE - Mercer County Regional Airport (32 nm E)
D05 - Garrison Municipal Airport (47 nm NE)
S25 - Watford City Municipal Airport (51 nm NW)
 
Loc | Ops | Rwys | IFR | FBO | Links
Com | Nav | Svcs | Stats | Notes

Bismarck Aero Center
AirBoss

 
Area around 10ND (Smith Strip Airport)
 
Road maps at: MapQuest Bing Google
 
Aerial photo
No photo
 
Sectional chart

 
Airport distance calculator
Flying to Smith Strip Airport? Find the distance to fly.

From to 10ND

Sunrise and sunset
Times for 21-Sep-2019
 Local
(UTC-6)
 Zulu
(UTC)
Morning civil twilight06:0512:05
Sunrise06:3612:36
Sunset18:4900:49
Evening civil twilight19:2001:20

Current date and time
Zulu (UTC)  22-Sep-2019 03:08:39
Local (UTC-6)  21-Sep-2019 21:08:39
 
METAR
KDIK 
29nm SW 
220256Z AUTO 26008KT 10SM CLR 08/07 A2992 RMK AO2 SLP135 T00830067 51010
KD57 
30nm SE 
220255Z AUTO 30006KT 10SM CLR 10/08 A2990 RMK AO2
KHZE 
32nm E 
220255Z AUTO 25006KT 10SM CLR 10/10 A2990 RMK AO2
KN60 
47nm NE 
220252Z AUTO 28006KT 09/09 A2986 RMK AO1 SLP117 T00940089 51016
TAF
KDIK 
29nm SW 
220025Z 2200/2224 30012KT P6SM BKN100 FM220200 27008KT P6SM SCT090 FM221500 26009KT P6SM SCT250 FM222100 28010KT P6SM FEW150
NOTAMs
Click for the latest NOTAMs
NOTAMs are issued by the DoD/FAA and will open in a separate window not controlled by AirNav.

 

 
 

Would you like to see your business listed on this page?

 If your business provides an interesting product or service to pilots, flight crews, aircraft, or users of the Smith Strip Airport, you should consider listing it here.  To start the listing process, click on the button below
 
Add a business
 

Other Pages about Smith Strip Airport

Update a link
 
Copyright © AirNav, LLC. All rights reserved. Privacy Policy  Contact